createdAt,value
2023-12-19T00:01:37.122Z,52
2023-12-19T00:03:37.186Z,54
2023-12-19T00:06:37.163Z,48
2023-12-19T00:08:37.144Z,51
2023-12-19T00:10:37.181Z,53
2023-12-19T00:13:37.156Z,39
2023-12-19T00:15:37.156Z,35
2023-12-19T00:18:37.241Z,34
2023-12-19T00:21:37.266Z,30
2023-12-19T00:24:37.171Z,29
2023-12-19T00:26:37.147Z,36
2023-12-19T00:29:37.153Z,41
2023-12-19T00:32:37.200Z,39
2023-12-19T00:34:37.154Z,41
2023-12-19T00:37:37.142Z,34
2023-12-19T00:39:37.136Z,33
2023-12-19T00:42:37.172Z,36
2023-12-19T00:45:37.160Z,37
2023-12-19T00:48:37.222Z,33
2023-12-19T00:50:37.135Z,35
2023-12-19T00:52:37.216Z,33
2023-12-19T00:55:37.137Z,33
2023-12-19T00:58:37.216Z,32
2023-12-19T01:01:37.215Z,32
2023-12-19T01:03:37.317Z,31
2023-12-19T01:06:37.203Z,33
2023-12-19T01:08:37.139Z,31
2023-12-19T01:10:37.153Z,31
2023-12-19T01:13:37.170Z,32
2023-12-19T01:16:37.115Z,33
2023-12-19T01:18:37.197Z,32
2023-12-19T01:20:37.170Z,31
2023-12-19T01:23:37.161Z,35
2023-12-19T01:26:37.121Z,40
2023-12-19T01:29:37.143Z,40
2023-12-19T01:32:37.228Z,36
2023-12-19T01:34:37.237Z,41
2023-12-19T01:36:37.149Z,47
2023-12-19T01:39:37.177Z,48
2023-12-19T01:41:37.156Z,44
2023-12-19T01:44:37.161Z,43
2023-12-19T01:47:37.118Z,42
2023-12-19T01:49:37.225Z,42
2023-12-19T01:52:37.143Z,41
2023-12-19T01:55:37.111Z,39
2023-12-19T01:57:37.165Z,37
2023-12-19T01:59:37.130Z,39
2023-12-19T02:01:37.329Z,40
2023-12-19T02:04:37.353Z,41
2023-12-19T02:07:37.117Z,38
2023-12-19T02:09:37.234Z,35
2023-12-19T02:12:37.168Z,41
2023-12-19T02:14:37.200Z,42
2023-12-19T02:17:37.160Z,40
2023-12-19T02:19:38.604Z,39
2023-12-19T02:22:37.242Z,34
2023-12-19T02:25:37.169Z,38
2023-12-19T02:27:37.185Z,41
2023-12-19T02:30:38.645Z,38
2023-12-19T02:32:37.210Z,36
2023-12-19T02:34:37.257Z,40
2023-12-19T02:36:37.240Z,41
2023-12-19T02:39:37.149Z,39
2023-12-19T02:41:37.140Z,39
2023-12-19T02:44:37.158Z,43
2023-12-19T02:46:37.195Z,68
2023-12-19T02:49:37.220Z,71
2023-12-19T02:51:37.221Z,63
2023-12-19T02:54:37.185Z,76
2023-12-19T02:56:37.170Z,77
2023-12-19T02:59:37.176Z,72
2023-12-19T03:02:37.173Z,70
2023-12-19T03:05:37.231Z,77
2023-12-19T03:07:37.198Z,76
2023-12-19T03:10:37.196Z,78
2023-12-19T03:13:37.148Z,76
2023-12-19T03:15:37.215Z,73
2023-12-19T03:18:37.275Z,77
2023-12-19T03:21:37.213Z,76
2023-12-19T03:24:37.198Z,70
2023-12-19T03:27:37.156Z,71
2023-12-19T03:29:37.205Z,77
2023-12-19T03:32:37.158Z,59
2023-12-19T03:34:37.266Z,58
2023-12-19T03:36:37.199Z,71
2023-12-19T03:38:37.151Z,67
2023-12-19T03:41:37.216Z,74
2023-12-19T03:43:37.248Z,70
2023-12-19T03:45:37.175Z,72
2023-12-19T03:48:37.190Z,79
2023-12-19T03:50:37.141Z,77
2023-12-19T03:53:37.132Z,77
2023-12-19T03:56:37.120Z,74
2023-12-19T03:58:37.115Z,74
2023-12-19T04:01:37.207Z,75
2023-12-19T04:04:37.147Z,70
2023-12-19T04:06:37.179Z,73
2023-12-19T04:09:37.215Z,72
2023-12-19T04:11:37.130Z,75
2023-12-19T04:13:37.145Z,64
2023-12-19T04:16:37.139Z,62
2023-12-19T04:19:37.188Z,70
2023-12-19T04:22:37.188Z,67
2023-12-19T04:25:37.128Z,58
2023-12-19T04:28:37.147Z,61
2023-12-19T04:30:37.230Z,57
2023-12-19T04:32:37.205Z,58
2023-12-19T04:35:37.132Z,56
2023-12-19T04:37:37.141Z,81
2023-12-19T04:39:37.213Z,78
2023-12-19T04:42:37.140Z,73
2023-12-19T04:44:37.141Z,68
2023-12-19T04:47:37.148Z,69
2023-12-19T04:49:37.206Z,72
2023-12-19T04:52:37.153Z,69
2023-12-19T04:55:37.113Z,71
2023-12-19T04:57:37.150Z,64
2023-12-19T04:59:37.164Z,63
2023-12-19T05:01:37.163Z,65
2023-12-19T05:04:37.180Z,61
2023-12-19T05:07:37.151Z,61
2023-12-19T05:09:37.161Z,57
2023-12-19T05:11:37.184Z,64
2023-12-19T05:14:37.165Z,61
2023-12-19T05:16:37.187Z,60
2023-12-19T05:19:40.587Z,59
2023-12-19T05:21:37.152Z,59
2023-12-19T05:24:37.177Z,57
2023-12-19T05:27:37.321Z,57
2023-12-19T05:29:37.133Z,66
2023-12-19T05:32:37.162Z,64
2023-12-19T05:35:37.144Z,64
2023-12-19T05:37:37.149Z,72
2023-12-19T05:40:37.130Z,69
2023-12-19T05:43:37.144Z,66
2023-12-19T05:46:37.124Z,64
2023-12-19T05:48:37.228Z,66
2023-12-19T05:51:37.148Z,65
2023-12-19T05:54:37.149Z,67
2023-12-19T05:56:37.158Z,64
2023-12-19T05:59:37.174Z,70
2023-12-19T06:01:37.173Z,60
2023-12-19T06:03:37.255Z,65
2023-12-19T06:06:37.165Z,54
2023-12-19T06:08:37.163Z,57
2023-12-19T06:11:37.131Z,53
2023-12-19T06:13:37.125Z,56
2023-12-19T06:15:37.153Z,59
2023-12-19T06:18:37.211Z,52
2023-12-19T06:20:37.118Z,56
2023-12-19T06:23:37.155Z,57
2023-12-19T06:26:37.119Z,62
2023-12-19T06:28:37.145Z,61
2023-12-19T06:30:38.765Z,59
2023-12-19T06:33:37.300Z,58
2023-12-19T06:35:37.316Z,54
2023-12-19T06:38:37.135Z,58
2023-12-19T06:40:37.169Z,60
2023-12-19T06:43:37.190Z,59
2023-12-19T06:46:37.195Z,58
2023-12-19T06:49:37.169Z,58
2023-12-19T06:51:37.360Z,57
2023-12-19T06:54:37.177Z,51
2023-12-19T06:57:37.121Z,58
2023-12-19T07:00:37.234Z,56
2023-12-19T07:03:37.185Z,56
2023-12-19T07:06:37.145Z,58
2023-12-19T07:09:37.131Z,55
2023-12-19T07:11:37.119Z,60
2023-12-19T07:14:37.114Z,57
2023-12-19T07:16:37.129Z,60
2023-12-19T07:19:37.253Z,52
2023-12-19T07:22:37.104Z,58
2023-12-19T07:24:37.220Z,60
2023-12-19T07:27:38.384Z,52
2023-12-19T07:29:37.125Z,54
2023-12-19T07:32:37.286Z,61
2023-12-19T07:35:37.127Z,58
2023-12-19T07:38:37.102Z,58
2023-12-19T07:40:37.141Z,59
2023-12-19T07:43:37.160Z,66
2023-12-19T07:45:37.160Z,67
2023-12-19T07:48:37.197Z,66
2023-12-19T07:50:37.271Z,62
2023-12-19T07:53:37.159Z,62
2023-12-19T07:56:37.237Z,68
2023-12-19T07:59:37.153Z,65
2023-12-19T08:02:37.151Z,71
2023-12-19T08:04:37.156Z,63
2023-12-19T08:07:37.120Z,64
2023-12-19T08:09:37.179Z,67
2023-12-19T08:11:37.275Z,67
2023-12-19T08:14:37.105Z,63
2023-12-19T08:17:37.209Z,61
2023-12-19T08:19:37.149Z,65
2023-12-19T08:22:37.089Z,67
2023-12-19T08:24:37.147Z,70
2023-12-19T08:27:37.281Z,67
2023-12-19T08:30:37.407Z,66
2023-12-19T08:33:37.165Z,64
2023-12-19T08:36:37.131Z,68
2023-12-19T08:38:37.127Z,64
2023-12-19T08:41:37.095Z,65
2023-12-19T08:44:37.150Z,58
2023-12-19T08:47:37.178Z,65
2023-12-19T08:50:37.112Z,62
2023-12-19T08:52:37.128Z,64
2023-12-19T08:54:37.175Z,61
2023-12-19T08:57:37.137Z,63
2023-12-19T08:59:37.142Z,62
2023-12-19T09:01:37.207Z,57
2023-12-19T09:03:37.251Z,57
2023-12-19T09:05:37.196Z,49
2023-12-19T09:08:37.107Z,52
2023-12-19T09:11:37.144Z,54
2023-12-19T09:14:37.111Z,57
2023-12-19T09:16:37.162Z,46
2023-12-19T09:19:37.210Z,46
2023-12-19T09:22:37.232Z,49
2023-12-19T09:25:37.195Z,48
2023-12-19T09:27:37.210Z,47
2023-12-19T09:30:37.264Z,50
2023-12-19T09:33:37.197Z,49
2023-12-19T09:36:40.646Z,43
2023-12-19T09:38:37.325Z,42
2023-12-19T09:40:37.145Z,42
2023-12-19T09:43:37.106Z,47
2023-12-19T09:45:37.252Z,41
2023-12-19T09:47:37.127Z,46
2023-12-19T09:49:37.181Z,45
2023-12-19T09:52:37.127Z,40
2023-12-19T09:55:37.118Z,43
2023-12-19T09:58:37.462Z,38
2023-12-19T10:01:37.163Z,37
2023-12-19T10:04:37.214Z,35
2023-12-19T10:07:37.170Z,36
2023-12-19T10:10:37.140Z,40
2023-12-19T10:13:37.193Z,39
2023-12-19T10:15:37.312Z,32
2023-12-19T10:17:37.151Z,36
2023-12-19T10:19:37.232Z,30
2023-12-19T10:22:37.462Z,33
2023-12-19T10:25:42.169Z,36
2023-12-19T10:28:37.138Z,33
2023-12-19T10:31:37.524Z,30
2023-12-19T10:35:37.155Z,33
2023-12-19T10:38:37.117Z,30
2023-12-19T10:41:37.129Z,30
2023-12-19T10:43:37.141Z,31
2023-12-19T10:46:37.119Z,29
2023-12-19T10:48:37.315Z,28
2023-12-19T10:51:37.226Z,30
2023-12-19T10:54:37.185Z,26
2023-12-19T10:57:37.125Z,29
2023-12-19T10:59:37.107Z,32
2023-12-19T11:01:37.217Z,29
2023-12-19T11:03:37.185Z,26
2023-12-19T11:06:37.154Z,28
2023-12-19T11:08:37.172Z,28
2023-12-19T11:11:37.149Z,31
2023-12-19T11:13:37.154Z,27
2023-12-19T11:16:37.164Z,28
2023-12-19T11:19:37.230Z,23
2023-12-19T11:22:37.165Z,25
2023-12-19T11:24:37.200Z,29
2023-12-19T11:27:37.232Z,29
2023-12-19T11:30:38.810Z,27
2023-12-19T11:33:37.252Z,27
2023-12-19T11:36:37.126Z,28
2023-12-19T11:38:37.145Z,25
2023-12-19T11:40:37.153Z,25
2023-12-19T11:42:37.221Z,27
2023-12-19T11:45:37.219Z,23
2023-12-19T11:48:37.265Z,25
2023-12-19T11:51:37.145Z,22
2023-12-19T11:54:37.177Z,25
2023-12-19T11:57:37.409Z,24
2023-12-19T12:00:37.596Z,23
2023-12-19T12:02:37.162Z,28
2023-12-19T12:05:37.139Z,25
2023-12-19T12:07:37.143Z,26
2023-12-19T12:10:37.160Z,27
2023-12-19T12:13:37.155Z,27
2023-12-19T12:15:37.188Z,23
2023-12-19T12:18:37.285Z,21
2023-12-19T12:20:37.288Z,25
2023-12-19T12:23:37.149Z,23
2023-12-19T12:26:37.144Z,25
2023-12-19T12:28:37.104Z,22
2023-12-19T12:30:37.209Z,25
2023-12-19T12:32:37.133Z,21
2023-12-19T12:34:37.251Z,23
2023-12-19T12:36:37.172Z,23
2023-12-19T12:38:37.152Z,25
2023-12-19T12:41:37.143Z,21
2023-12-19T12:43:37.334Z,21
2023-12-19T12:46:37.194Z,20
2023-12-19T12:48:37.262Z,20
2023-12-19T12:51:37.191Z,24
2023-12-19T12:54:38.617Z,19
2023-12-19T12:56:37.163Z,23
2023-12-19T12:58:37.187Z,24
2023-12-19T13:01:37.171Z,21
2023-12-19T13:03:37.180Z,19
2023-12-19T13:06:39.117Z,19
2023-12-19T13:09:37.145Z,22
2023-12-19T13:11:37.122Z,21
2023-12-19T13:14:37.161Z,21
2023-12-19T13:17:37.108Z,21
2023-12-19T13:19:37.174Z,21
2023-12-19T13:22:37.119Z,24
2023-12-19T13:24:38.350Z,25
2023-12-19T13:27:37.176Z,25
2023-12-19T13:30:38.749Z,23
2023-12-19T13:32:37.168Z,21
2023-12-19T13:34:37.241Z,21
2023-12-19T13:37:37.132Z,21
2023-12-19T13:39:37.201Z,22
2023-12-19T13:42:38.484Z,20
2023-12-19T13:45:37.157Z,22
2023-12-19T13:48:39.068Z,22
2023-12-19T13:50:37.144Z,21
2023-12-19T13:53:37.136Z,22
2023-12-19T13:55:37.148Z,23
2023-12-19T13:57:37.362Z,23
2023-12-19T14:00:37.155Z,22
2023-12-19T14:02:37.156Z,21
2023-12-19T14:04:37.236Z,21
2023-12-19T14:07:37.172Z,24
2023-12-19T14:09:37.156Z,26
2023-12-19T14:12:37.186Z,23
2023-12-19T14:15:37.174Z,25
2023-12-19T14:18:37.182Z,23
2023-12-19T14:21:37.214Z,23
2023-12-19T14:24:37.209Z,27
2023-12-19T14:26:40.490Z,24
2023-12-19T14:29:37.145Z,23
2023-12-19T14:31:37.207Z,21
2023-12-19T14:34:37.207Z,21
2023-12-19T14:37:37.137Z,23
2023-12-19T14:39:37.190Z,24
2023-12-19T14:42:37.182Z,24
2023-12-19T14:45:37.166Z,25
2023-12-19T14:47:37.196Z,21
2023-12-19T14:49:37.352Z,24
2023-12-19T14:51:37.158Z,23
2023-12-19T14:54:38.209Z,26
2023-12-19T14:56:37.140Z,24
2023-12-19T14:58:37.134Z,27
2023-12-19T15:01:37.181Z,26
2023-12-19T15:04:37.486Z,28
2023-12-19T15:07:37.316Z,29
2023-12-19T15:09:37.167Z,27
2023-12-19T15:12:37.163Z,24
2023-12-19T15:15:37.137Z,30
2023-12-19T15:17:37.196Z,25
2023-12-19T15:20:37.200Z,23
2023-12-19T15:22:37.154Z,25
2023-12-19T15:25:37.215Z,27
2023-12-19T15:28:37.192Z,28
2023-12-19T15:31:37.263Z,27
2023-12-19T15:33:37.281Z,26
2023-12-19T15:36:37.142Z,24
2023-12-19T15:38:37.157Z,25
2023-12-19T15:41:37.159Z,27
2023-12-19T15:44:37.142Z,20
2023-12-19T15:47:37.152Z,25
2023-12-19T15:49:37.246Z,27
2023-12-19T15:52:38.651Z,23
2023-12-19T15:55:37.166Z,25
2023-12-19T15:58:39.574Z,24
2023-12-19T16:01:37.678Z,26
2023-12-19T16:03:37.216Z,24
2023-12-19T16:05:37.233Z,26
2023-12-19T16:08:37.168Z,24
2023-12-19T16:11:37.125Z,23
2023-12-19T16:13:37.140Z,30
2023-12-19T16:15:37.172Z,23
2023-12-19T16:17:37.187Z,23
2023-12-19T16:20:37.108Z,26
2023-12-19T16:23:42.760Z,26
2023-12-19T16:26:37.153Z,25
2023-12-19T16:28:37.133Z,28
2023-12-19T16:30:37.196Z,22
2023-12-19T16:32:37.180Z,26
2023-12-19T16:35:37.158Z,24
2023-12-19T16:38:39.218Z,25
2023-12-19T16:40:37.193Z,26
2023-12-19T16:42:37.156Z,27
2023-12-19T16:45:37.309Z,24
2023-12-19T16:48:37.467Z,26
2023-12-19T16:51:37.302Z,27
2023-12-19T16:54:37.215Z,28
2023-12-19T16:57:37.253Z,22
2023-12-19T16:59:37.137Z,23
2023-12-19T17:01:37.240Z,26
2023-12-19T17:04:37.201Z,28
2023-12-19T17:06:37.164Z,31
2023-12-19T17:09:37.170Z,27
2023-12-19T17:12:37.142Z,24
2023-12-19T17:14:37.160Z,26
2023-12-19T17:17:37.159Z,24
2023-12-19T17:19:37.219Z,23
2023-12-19T17:22:37.153Z,28
2023-12-19T17:25:37.125Z,28
2023-12-19T17:27:37.242Z,28
2023-12-19T17:30:37.541Z,29
2023-12-19T17:33:37.152Z,29
2023-12-19T17:35:37.156Z,23
2023-12-19T17:38:37.139Z,32
2023-12-19T17:41:39.773Z,27
2023-12-19T17:44:37.131Z,29
2023-12-19T17:46:37.145Z,30
2023-12-19T17:49:37.245Z,32
2023-12-19T17:51:37.245Z,32
2023-12-19T17:54:37.162Z,32
2023-12-19T17:57:37.173Z,28
2023-12-19T18:00:37.147Z,33
2023-12-19T18:02:37.162Z,28
2023-12-19T18:04:37.181Z,29
2023-12-19T18:06:37.263Z,36
2023-12-19T18:09:37.208Z,37
2023-12-19T18:12:37.150Z,32
2023-12-19T18:15:37.143Z,27
2023-12-19T18:17:37.185Z,28
2023-12-19T18:20:37.147Z,28
2023-12-19T18:23:37.138Z,30
2023-12-19T18:25:37.147Z,32
2023-12-19T18:28:37.208Z,31
2023-12-19T18:31:37.230Z,31
2023-12-19T18:33:37.254Z,31
2023-12-19T18:36:37.187Z,29
2023-12-19T18:38:37.162Z,29
2023-12-19T18:41:37.148Z,24
2023-12-19T18:44:37.178Z,23
2023-12-19T18:47:37.120Z,21
2023-12-19T18:49:37.158Z,24
2023-12-19T18:51:37.214Z,21
2023-12-19T18:54:37.146Z,27
2023-12-19T18:56:37.197Z,21
2023-12-19T18:59:37.196Z,21
2023-12-19T19:01:37.271Z,21
2023-12-19T19:04:37.195Z,20
2023-12-19T19:07:37.144Z,21
2023-12-19T19:10:37.162Z,14
2023-12-19T19:12:37.264Z,15
2023-12-19T19:15:37.195Z,13
2023-12-19T19:18:37.142Z,18
2023-12-19T19:20:37.176Z,16
2023-12-19T19:23:37.186Z,16
2023-12-19T19:26:38.124Z,18
2023-12-19T19:28:37.200Z,14
2023-12-19T19:31:37.197Z,14
2023-12-19T19:33:37.395Z,14
2023-12-19T19:35:37.215Z,14
2023-12-19T19:38:37.111Z,15
2023-12-19T19:40:39.221Z,15
2023-12-19T19:43:37.150Z,16
2023-12-19T19:46:37.145Z,13
2023-12-19T19:48:37.294Z,14
2023-12-19T19:51:37.184Z,14
2023-12-19T19:54:37.198Z,18
2023-12-19T19:56:37.159Z,16
2023-12-19T19:58:37.212Z,17
2023-12-19T20:01:37.204Z,16
2023-12-19T20:03:37.196Z,19
2023-12-19T20:06:37.300Z,14
2023-12-19T20:08:37.135Z,17
2023-12-19T20:11:37.186Z,17
2023-12-19T20:14:37.140Z,19
2023-12-19T20:17:37.234Z,17
2023-12-19T20:20:37.115Z,15
2023-12-19T20:22:37.166Z,17
2023-12-19T20:25:37.166Z,17
2023-12-19T20:27:37.215Z,15
2023-12-19T20:30:37.231Z,16
2023-12-19T20:32:37.180Z,17
2023-12-19T20:34:37.235Z,17
2023-12-19T20:37:37.148Z,17
2023-12-19T20:40:37.220Z,19
2023-12-19T20:43:37.141Z,18
2023-12-19T20:45:37.153Z,24
2023-12-19T20:48:37.259Z,19
2023-12-19T20:51:38.580Z,25
2023-12-19T20:54:37.134Z,19
2023-12-19T20:56:37.184Z,20
2023-12-19T20:59:37.172Z,23
2023-12-19T21:01:37.196Z,18
2023-12-19T21:04:37.234Z,19
2023-12-19T21:07:37.199Z,24
2023-12-19T21:10:37.121Z,19
2023-12-19T21:12:37.166Z,21
2023-12-19T21:15:37.131Z,23
2023-12-19T21:17:37.195Z,21
2023-12-19T21:19:37.154Z,17
2023-12-19T21:22:37.200Z,19
2023-12-19T21:25:37.211Z,21
2023-12-19T21:28:37.191Z,21
2023-12-19T21:31:37.241Z,16
2023-12-19T21:33:37.350Z,19
2023-12-19T21:36:37.171Z,18
2023-12-19T21:39:37.270Z,18
2023-12-19T21:42:37.208Z,16
2023-12-19T21:45:37.281Z,25
2023-12-19T21:48:37.453Z,18
2023-12-19T21:51:37.372Z,24
2023-12-19T21:54:37.223Z,18
2023-12-19T21:56:37.156Z,23
2023-12-19T21:59:37.179Z,19
2023-12-19T22:02:37.155Z,19
2023-12-19T22:04:37.198Z,22
2023-12-19T22:06:37.209Z,20
2023-12-19T22:09:40.822Z,23
2023-12-19T22:12:37.126Z,20
2023-12-19T22:14:37.142Z,19
2023-12-19T22:17:37.263Z,10
2023-12-19T22:19:37.321Z,19
2023-12-19T22:21:37.292Z,19
2023-12-19T22:24:37.130Z,18
2023-12-19T22:26:37.144Z,18
2023-12-19T22:29:37.133Z,18
2023-12-19T22:31:37.288Z,16
2023-12-19T22:34:37.183Z,15
2023-12-19T22:37:37.109Z,16
2023-12-19T22:39:37.175Z,13
2023-12-19T22:42:37.186Z,15
2023-12-19T22:44:37.207Z,15
2023-12-19T22:46:37.157Z,19
2023-12-19T22:49:37.330Z,19
2023-12-19T22:52:37.193Z,19
2023-12-19T22:54:37.243Z,11
2023-12-19T22:56:37.190Z,21
2023-12-19T22:59:37.172Z,17
2023-12-19T23:02:37.165Z,18
2023-12-19T23:04:37.253Z,16
2023-12-19T23:07:37.237Z,22
2023-12-19T23:10:37.302Z,23
2023-12-19T23:12:37.187Z,24
2023-12-19T23:14:37.167Z,17
2023-12-19T23:17:37.147Z,12
2023-12-19T23:19:37.311Z,18
2023-12-19T23:21:37.244Z,18
2023-12-19T23:24:37.357Z,18
2023-12-19T23:27:37.215Z,19
2023-12-19T23:30:37.219Z,25
2023-12-19T23:33:37.218Z,19
2023-12-19T23:35:37.167Z,17
2023-12-19T23:38:37.183Z,16
2023-12-19T23:40:37.204Z,13
2023-12-19T23:43:37.252Z,13
2023-12-19T23:46:37.177Z,19
2023-12-19T23:48:37.253Z,17
2023-12-19T23:50:37.174Z,16
2023-12-19T23:53:37.182Z,12
2023-12-19T23:55:37.502Z,9
2023-12-19T23:58:37.744Z,12
